This is the latest recevied weather packets stored in our database for station/object DM3DP. If no packets are shown the sender has not sent any weather packets the latest 10 day(s).
| Time | Temp. | Humidity | Pressure | Rain* | Wind** | Luminosity | Snow |
|---|---|---|---|---|---|---|---|
| 1777712973 | 21.67° C | 49% | 1018 hPa | 0 mm | - | 775 W/m² | - |
| 1777712643 | 21.11° C | 52% | 1018 hPa | 0 mm | - | 720 W/m² | - |
| 1777712313 | 21.11° C | 52% | 1018 hPa | 0 mm | - | 739 W/m² | - |
| 1777711983 | 21.11° C | 52% | 1018 hPa | 0 mm | - | 555 W/m² | - |
| 1777711653 | 20.56° C | 53% | 1018 hPa | 0 mm | - | 646 W/m² | - |
| 1777711324 | 20.56° C | 53% | 1018 hPa | 0 mm | - | 798 W/m² | - |
| 1777710993 | 20.56° C | 53% | 1017.7 hPa | 0 mm | - | 696 W/m² | - |
| 1777710663 | 20° C | 54% | 1017.7 hPa | 0 mm | - | 677 W/m² | - |
| 1777710333 | 19.44° C | 55% | 1018 hPa | 0 mm | - | 627 W/m² | - |
| 1777710003 | 18.89° C | 57% | 1018.1 hPa | 0 mm | - | 570 W/m² | - |
| 1777709673 | 18.89° C | 56% | 1018.1 hPa | 0 mm | - | 468 W/m² | - |
| 1777709343 | 18.89° C | 57% | 1018.1 hPa | 0 mm | - | 438 W/m² | - |
| 1777709014 | 18.89° C | 57% | 1018.1 hPa | 0 mm | - | 299 W/m² | - |
| 1777708683 | 18.89° C | 55% | 1018.1 hPa | 0 mm | - | 356 W/m² | - |
| 1777708353 | 18.89° C | 55% | 1018.2 hPa | 0 mm | - | 135 W/m² | - |
| 1777708023 | 18.89° C | 55% | 1018.2 hPa | 0 mm | - | 186 W/m² | - |
| 1777707694 | 18.33° C | 59% | 1018.3 hPa | 0 mm | - | 574 W/m² | - |
| 1777707363 | 17.78° C | 60% | 1018.3 hPa | 0 mm | - | 603 W/m² | - |
| 1777707033 | 17.22° C | 62% | 1018.3 hPa | 0 mm | - | 339 W/m² | - |
| 1777706703 | 16.67° C | 61% | 1018.3 hPa | 0 mm | - | 166 W/m² | - |
| 1777706373 | 16.67° C | 60% | 1018.3 hPa | 0 mm | - | 111 W/m² | - |
| 1777706044 | 16.67° C | 60% | 1018.3 hPa | 0 mm | - | 99 W/m² | - |
| 1777705713 | 17.22° C | 59% | 1018.3 hPa | 0 mm | - | 117 W/m² | - |
| 1777705383 | 17.22° C | 59% | 1018.3 hPa | 0 mm | - | 100 W/m² | - |
| 1777705053 | 17.22° C | 59% | 1018.3 hPa | 0 mm | - | 82 W/m² | - |
* Rain latest hour (hover to see other rain measurements)
** Current wind speed in m/s (hover to see current wind gust speed)